sensor_id;sensor_type;location;lat;lon;timestamp;temperature;humidity
21197;DHT22;10756;51.014;3.786;2022-07-19T00:02:07;22.30;99.90
21197;DHT22;10756;51.014;3.786;2022-07-19T00:04:34;22.20;99.90
21197;DHT22;10756;51.014;3.786;2022-07-19T00:07:00;22.20;99.90
21197;DHT22;10756;51.014;3.786;2022-07-19T00:09:26;22.10;99.90
21197;DHT22;10756;51.014;3.786;2022-07-19T00:11:52;22.00;99.90
21197;DHT22;10756;51.014;3.786;2022-07-19T00:14:18;22.00;99.90
21197;DHT22;10756;51.014;3.786;2022-07-19T00:16:44;22.00;99.90
21197;DHT22;10756;51.014;3.786;2022-07-19T00:19:10;22.00;99.90
21197;DHT22;10756;51.014;3.786;2022-07-19T00:21:35;21.80;99.90
21197;DHT22;10756;51.014;3.786;2022-07-19T00:24:01;21.80;99.90
21197;DHT22;10756;51.014;3.786;2022-07-19T00:26:27;21.70;99.90
21197;DHT22;10756;51.014;3.786;2022-07-19T00:28:53;21.70;99.90
21197;DHT22;10756;51.014;3.786;2022-07-19T00:31:21;21.70;99.90
21197;DHT22;10756;51.014;3.786;2022-07-19T00:33:46;21.60;99.90
21197;DHT22;10756;51.014;3.786;2022-07-19T00:36:12;21.40;99.90
21197;DHT22;10756;51.014;3.786;2022-07-19T00:38:38;21.40;99.90
21197;DHT22;10756;51.014;3.786;2022-07-19T00:41:04;21.40;99.90
21197;DHT22;10756;51.014;3.786;2022-07-19T00:43:30;21.30;99.90
21197;DHT22;10756;51.014;3.786;2022-07-19T00:45:56;21.30;99.90
21197;DHT22;10756;51.014;3.786;2022-07-19T00:48:22;21.30;99.90
21197;DHT22;10756;51.014;3.786;2022-07-19T00:50:48;21.30;99.90
21197;DHT22;10756;51.014;3.786;2022-07-19T00:53:14;21.20;99.90
21197;DHT22;10756;51.014;3.786;2022-07-19T00:55:41;21.20;99.90
21197;DHT22;10756;51.014;3.786;2022-07-19T00:58:08;21.10;99.90
21197;DHT22;10756;51.014;3.786;2022-07-19T01:00:35;21.10;99.90
21197;DHT22;10756;51.014;3.786;2022-07-19T01:03:02;21.00;99.90
21197;DHT22;10756;51.014;3.786;2022-07-19T01:05:27;21.00;99.90
21197;DHT22;10756;51.014;3.786;2022-07-19T01:07:53;21.00;99.90
21197;DHT22;10756;51.014;3.786;2022-07-19T01:10:19;20.90;99.90
21197;DHT22;10756;51.014;3.786;2022-07-19T01:12:45;20.80;99.90
21197;DHT22;10756;51.014;3.786;2022-07-19T01:15:19;20.80;99.90
21197;DHT22;10756;51.014;3.786;2022-07-19T01:17:46;20.80;99.90
21197;DHT22;10756;51.014;3.786;2022-07-19T01:20:12;20.90;99.90
21197;DHT22;10756;51.014;3.786;2022-07-19T01:22:38;20.80;99.90
21197;DHT22;10756;51.014;3.786;2022-07-19T01:25:04;20.80;99.90
21197;DHT22;10756;51.014;3.786;2022-07-19T01:27:30;20.70;99.90
21197;DHT22;10756;51.014;3.786;2022-07-19T01:29:56;20.70;99.90
21197;DHT22;10756;51.014;3.786;2022-07-19T01:32:21;20.70;99.90
21197;DHT22;10756;51.014;3.786;2022-07-19T01:34:47;20.60;99.90
21197;DHT22;10756;51.014;3.786;2022-07-19T01:37:13;20.50;99.90
21197;DHT22;10756;51.014;3.786;2022-07-19T01:39:38;20.60;99.90
21197;DHT22;10756;51.014;3.786;2022-07-19T01:42:04;20.50;99.90
21197;DHT22;10756;51.014;3.786;2022-07-19T01:44:29;20.50;99.90
21197;DHT22;10756;51.014;3.786;2022-07-19T01:46:55;20.60;99.90
21197;DHT22;10756;51.014;3.786;2022-07-19T01:49:21;20.40;99.90
21197;DHT22;10756;51.014;3.786;2022-07-19T01:51:46;20.50;99.90
21197;DHT22;10756;51.014;3.786;2022-07-19T01:54:12;20.30;99.90
21197;DHT22;10756;51.014;3.786;2022-07-19T01:56:42;20.40;99.90
21197;DHT22;10756;51.014;3.786;2022-07-19T01:59:08;20.30;99.90
21197;DHT22;10756;51.014;3.786;2022-07-19T02:01:33;20.30;99.90
21197;DHT22;10756;51.014;3.786;2022-07-19T02:03:59;20.30;99.90
21197;DHT22;10756;51.014;3.786;2022-07-19T02:06:24;20.30;99.90
21197;DHT22;10756;51.014;3.786;2022-07-19T02:08:50;20.20;99.90
21197;DHT22;10756;51.014;3.786;2022-07-19T02:11:15;20.10;99.90
21197;DHT22;10756;51.014;3.786;2022-07-19T02:13:51;20.00;99.90
21197;DHT22;10756;51.014;3.786;2022-07-19T02:16:17;20.00;99.90
21197;DHT22;10756;51.014;3.786;2022-07-19T02:18:42;20.00;99.90
21197;DHT22;10756;51.014;3.786;2022-07-19T02:21:08;20.00;99.90
21197;DHT22;10756;51.014;3.786;2022-07-19T02:23:34;19.80;99.90
21197;DHT22;10756;51.014;3.786;2022-07-19T02:25:59;19.70;99.90
21197;DHT22;10756;51.014;3.786;2022-07-19T02:28:25;19.70;99.90
21197;DHT22;10756;51.014;3.786;2022-07-19T02:30:50;19.60;99.90
21197;DHT22;10756;51.014;3.786;2022-07-19T02:33:16;19.60;99.90
21197;DHT22;10756;51.014;3.786;2022-07-19T02:35:42;19.50;99.90
21197;DHT22;10756;51.014;3.786;2022-07-19T02:38:08;19.50;99.90
21197;DHT22;10756;51.014;3.786;2022-07-19T02:40:33;19.50;99.90
21197;DHT22;10756;51.014;3.786;2022-07-19T02:42:59;19.50;99.90
21197;DHT22;10756;51.014;3.786;2022-07-19T02:45:24;19.50;99.90
21197;DHT22;10756;51.014;3.786;2022-07-19T02:47:50;19.40;99.90
21197;DHT22;10756;51.014;3.786;2022-07-19T02:50:16;19.40;99.90
21197;DHT22;10756;51.014;3.786;2022-07-19T02:52:45;19.50;99.90
21197;DHT22;10756;51.014;3.786;2022-07-19T02:55:22;19.40;99.90
21197;DHT22;10756;51.014;3.786;2022-07-19T02:58:04;19.40;99.90
21197;DHT22;10756;51.014;3.786;2022-07-19T03:00:30;19.50;99.90
21197;DHT22;10756;51.014;3.786;2022-07-19T03:02:57;19.50;99.90
21197;DHT22;10756;51.014;3.786;2022-07-19T03:05:47;19.40;99.90
21197;DHT22;10756;51.014;3.786;2022-07-19T03:08:12;19.50;99.90
21197;DHT22;10756;51.014;3.786;2022-07-19T03:10:38;19.50;99.90
21197;DHT22;10756;51.014;3.786;2022-07-19T03:13:04;19.50;99.90
21197;DHT22;10756;51.014;3.786;2022-07-19T03:15:29;19.40;99.90
21197;DHT22;10756;51.014;3.786;2022-07-19T03:17:55;19.30;99.90
21197;DHT22;10756;51.014;3.786;2022-07-19T03:20:21;19.30;99.90
21197;DHT22;10756;51.014;3.786;2022-07-19T03:22:47;19.20;99.90
21197;DHT22;10756;51.014;3.786;2022-07-19T03:25:13;19.10;99.90
21197;DHT22;10756;51.014;3.786;2022-07-19T03:27:39;19.30;99.90
21197;DHT22;10756;51.014;3.786;2022-07-19T03:30:05;19.20;99.90
21197;DHT22;10756;51.014;3.786;2022-07-19T03:32:31;19.30;99.90
21197;DHT22;10756;51.014;3.786;2022-07-19T03:34:56;19.20;99.90
21197;DHT22;10756;51.014;3.786;2022-07-19T03:37:22;19.10;99.90
21197;DHT22;10756;51.014;3.786;2022-07-19T03:39:48;19.10;99.90
21197;DHT22;10756;51.014;3.786;2022-07-19T03:42:13;19.10;99.90
21197;DHT22;10756;51.014;3.786;2022-07-19T03:44:39;19.10;99.90
21197;DHT22;10756;51.014;3.786;2022-07-19T03:47:05;19.00;99.90
21197;DHT22;10756;51.014;3.786;2022-07-19T03:49:30;19.00;99.90
21197;DHT22;10756;51.014;3.786;2022-07-19T03:51:56;18.90;99.90
21197;DHT22;10756;51.014;3.786;2022-07-19T03:54:21;18.90;99.90
21197;DHT22;10756;51.014;3.786;2022-07-19T03:56:47;18.90;99.90
21197;DHT22;10756;51.014;3.786;2022-07-19T03:59:13;18.80;99.90
21197;DHT22;10756;51.014;3.786;2022-07-19T04:01:38;19.00;99.90
21197;DHT22;10756;51.014;3.786;2022-07-19T04:04:06;19.10;99.90
21197;DHT22;10756;51.014;3.786;2022-07-19T04:06:31;19.10;99.90
21197;DHT22;10756;51.014;3.786;2022-07-19T04:08:57;19.00;99.90
21197;DHT22;10756;51.014;3.786;2022-07-19T04:11:23;19.00;99.90
21197;DHT22;10756;51.014;3.786;2022-07-19T04:13:49;19.00;99.90
21197;DHT22;10756;51.014;3.786;2022-07-19T04:16:15;18.90;99.90
21197;DHT22;10756;51.014;3.786;2022-07-19T04:18:40;18.80;99.90
21197;DHT22;10756;51.014;3.786;2022-07-19T04:21:06;18.80;99.90
21197;DHT22;10756;51.014;3.786;2022-07-19T04:23:32;18.90;99.90
21197;DHT22;10756;51.014;3.786;2022-07-19T04:25:58;18.90;99.90
21197;DHT22;10756;51.014;3.786;2022-07-19T04:28:23;18.90;99.90
21197;DHT22;10756;51.014;3.786;2022-07-19T04:30:49;19.00;99.90
21197;DHT22;10756;51.014;3.786;2022-07-19T04:33:16;19.00;99.90
21197;DHT22;10756;51.014;3.786;2022-07-19T04:35:43;19.10;99.90
21197;DHT22;10756;51.014;3.786;2022-07-19T04:38:09;19.10;99.90
21197;DHT22;10756;51.014;3.786;2022-07-19T04:40:35;19.30;99.90
21197;DHT22;10756;51.014;3.786;2022-07-19T04:43:01;19.30;99.90
21197;DHT22;10756;51.014;3.786;2022-07-19T04:45:26;19.40;99.90
21197;DHT22;10756;51.014;3.786;2022-07-19T04:47:53;19.40;99.90
21197;DHT22;10756;51.014;3.786;2022-07-19T04:50:19;19.40;99.90
21197;DHT22;10756;51.014;3.786;2022-07-19T04:52:45;19.50;99.90
21197;DHT22;10756;51.014;3.786;2022-07-19T04:55:10;19.60;99.90
21197;DHT22;10756;51.014;3.786;2022-07-19T04:57:36;19.70;99.90
21197;DHT22;10756;51.014;3.786;2022-07-19T05:00:04;19.80;99.90
21197;DHT22;10756;51.014;3.786;2022-07-19T05:02:31;19.90;99.90
21197;DHT22;10756;51.014;3.786;2022-07-19T05:04:57;19.90;99.90
21197;DHT22;10756;51.014;3.786;2022-07-19T05:07:22;20.10;99.90
21197;DHT22;10756;51.014;3.786;2022-07-19T05:09:48;20.10;99.90
21197;DHT22;10756;51.014;3.786;2022-07-19T05:12:14;20.30;99.90
21197;DHT22;10756;51.014;3.786;2022-07-19T05:14:40;20.40;99.90
21197;DHT22;10756;51.014;3.786;2022-07-19T05:17:06;20.40;99.90
21197;DHT22;10756;51.014;3.786;2022-07-19T05:19:32;20.60;99.90
21197;DHT22;10756;51.014;3.786;2022-07-19T05:22:01;20.70;99.90
21197;DHT22;10756;51.014;3.786;2022-07-19T05:24:26;20.90;99.90
21197;DHT22;10756;51.014;3.786;2022-07-19T05:26:52;21.00;99.90
21197;DHT22;10756;51.014;3.786;2022-07-19T05:29:18;21.20;99.90
21197;DHT22;10756;51.014;3.786;2022-07-19T05:31:44;21.20;99.90
21197;DHT22;10756;51.014;3.786;2022-07-19T05:34:10;21.30;99.90
21197;DHT22;10756;51.014;3.786;2022-07-19T05:36:35;21.30;99.90
21197;DHT22;10756;51.014;3.786;2022-07-19T05:39:01;21.30;99.90
21197;DHT22;10756;51.014;3.786;2022-07-19T05:41:27;21.50;99.90
21197;DHT22;10756;51.014;3.786;2022-07-19T05:43:53;21.60;99.90
21197;DHT22;10756;51.014;3.786;2022-07-19T05:46:19;21.60;99.90
21197;DHT22;10756;51.014;3.786;2022-07-19T05:48:45;21.70;99.90
21197;DHT22;10756;51.014;3.786;2022-07-19T05:51:11;21.80;99.90
21197;DHT22;10756;51.014;3.786;2022-07-19T05:53:37;21.90;99.90
21197;DHT22;10756;51.014;3.786;2022-07-19T05:56:03;22.00;99.90
21197;DHT22;10756;51.014;3.786;2022-07-19T05:58:30;22.10;99.90
21197;DHT22;10756;51.014;3.786;2022-07-19T06:00:56;22.20;99.90
21197;DHT22;10756;51.014;3.786;2022-07-19T06:03:32;22.30;99.90
21197;DHT22;10756;51.014;3.786;2022-07-19T06:05:58;22.40;99.90
21197;DHT22;10756;51.014;3.786;2022-07-19T06:08:24;22.70;99.90
21197;DHT22;10756;51.014;3.786;2022-07-19T06:10:49;22.80;99.90
21197;DHT22;10756;51.014;3.786;2022-07-19T06:13:15;23.00;99.90
21197;DHT22;10756;51.014;3.786;2022-07-19T06:15:41;23.10;99.90
21197;DHT22;10756;51.014;3.786;2022-07-19T06:18:07;23.20;99.90
21197;DHT22;10756;51.014;3.786;2022-07-19T06:20:32;23.20;99.90
21197;DHT22;10756;51.014;3.786;2022-07-19T06:22:58;23.30;99.90
21197;DHT22;10756;51.014;3.786;2022-07-19T06:25:24;23.40;99.90
21197;DHT22;10756;51.014;3.786;2022-07-19T06:27:53;23.50;99.90
21197;DHT22;10756;51.014;3.786;2022-07-19T06:30:36;23.60;99.90
21197;DHT22;10756;51.014;3.786;2022-07-19T06:33:13;23.70;99.90
21197;DHT22;10756;51.014;3.786;2022-07-19T06:35:40;23.90;99.90
21197;DHT22;10756;51.014;3.786;2022-07-19T06:38:09;24.00;99.90
21197;DHT22;10756;51.014;3.786;2022-07-19T06:41:04;24.10;99.90
21197;DHT22;10756;51.014;3.786;2022-07-19T06:43:36;24.40;99.90
21197;DHT22;10756;51.014;3.786;2022-07-19T06:46:19;24.50;99.90
21197;DHT22;10756;51.014;3.786;2022-07-19T06:48:45;24.60;99.90
21197;DHT22;10756;51.014;3.786;2022-07-19T06:51:10;24.70;99.90
21197;DHT22;10756;51.014;3.786;2022-07-19T06:53:36;24.90;99.90
21197;DHT22;10756;51.014;3.786;2022-07-19T06:56:02;24.90;99.90
21197;DHT22;10756;51.014;3.786;2022-07-19T06:58:31;25.00;99.90
21197;DHT22;10756;51.014;3.786;2022-07-19T07:00:57;25.20;99.90
21197;DHT22;10756;51.014;3.786;2022-07-19T07:03:23;25.30;99.90
21197;DHT22;10756;51.014;3.786;2022-07-19T07:05:49;25.40;99.90
21197;DHT22;10756;51.014;3.786;2022-07-19T07:08:15;25.60;99.90
21197;DHT22;10756;51.014;3.786;2022-07-19T07:10:40;25.80;99.90
21197;DHT22;10756;51.014;3.786;2022-07-19T07:13:10;26.00;99.90
21197;DHT22;10756;51.014;3.786;2022-07-19T07:15:39;26.20;99.90
21197;DHT22;10756;51.014;3.786;2022-07-19T07:18:13;26.40;99.90
21197;DHT22;10756;51.014;3.786;2022-07-19T07:20:40;26.50;99.90
21197;DHT22;10756;51.014;3.786;2022-07-19T07:23:06;26.80;99.90
21197;DHT22;10756;51.014;3.786;2022-07-19T07:25:32;27.00;99.90
21197;DHT22;10756;51.014;3.786;2022-07-19T07:28:07;27.10;99.90
21197;DHT22;10756;51.014;3.786;2022-07-19T07:30:39;27.20;99.90
21197;DHT22;10756;51.014;3.786;2022-07-19T07:33:14;27.30;99.90
21197;DHT22;10756;51.014;3.786;2022-07-19T07:35:39;27.80;99.90
21197;DHT22;10756;51.014;3.786;2022-07-19T07:38:05;28.00;99.90
21197;DHT22;10756;51.014;3.786;2022-07-19T07:40:30;27.90;99.90
21197;DHT22;10756;51.014;3.786;2022-07-19T07:42:57;28.00;99.90
21197;DHT22;10756;51.014;3.786;2022-07-19T07:45:23;28.10;99.90
21197;DHT22;10756;51.014;3.786;2022-07-19T07:47:49;28.30;99.90
21197;DHT22;10756;51.014;3.786;2022-07-19T07:50:17;28.50;99.90
21197;DHT22;10756;51.014;3.786;2022-07-19T07:52:43;28.40;99.90
21197;DHT22;10756;51.014;3.786;2022-07-19T07:55:09;28.60;99.90
21197;DHT22;10756;51.014;3.786;2022-07-19T07:57:34;28.80;99.90
21197;DHT22;10756;51.014;3.786;2022-07-19T08:00:00;29.10;99.90
21197;DHT22;10756;51.014;3.786;2022-07-19T08:02:26;29.30;99.90
21197;DHT22;10756;51.014;3.786;2022-07-19T08:04:51;29.40;99.90
21197;DHT22;10756;51.014;3.786;2022-07-19T08:07:17;29.30;99.90
21197;DHT22;10756;51.014;3.786;2022-07-19T08:09:43;29.40;99.90
21197;DHT22;10756;51.014;3.786;2022-07-19T08:12:08;29.70;99.90
21197;DHT22;10756;51.014;3.786;2022-07-19T08:14:34;29.70;99.90
21197;DHT22;10756;51.014;3.786;2022-07-19T08:17:00;29.80;99.90
21197;DHT22;10756;51.014;3.786;2022-07-19T08:19:25;30.00;99.90
21197;DHT22;10756;51.014;3.786;2022-07-19T08:21:51;30.20;99.90
21197;DHT22;10756;51.014;3.786;2022-07-19T08:24:17;30.10;99.90
21197;DHT22;10756;51.014;3.786;2022-07-19T08:26:42;30.00;99.90
21197;DHT22;10756;51.014;3.786;2022-07-19T08:29:08;30.20;99.90
21197;DHT22;10756;51.014;3.786;2022-07-19T08:31:33;30.30;99.90
21197;DHT22;10756;51.014;3.786;2022-07-19T08:33:59;30.30;99.90
21197;DHT22;10756;51.014;3.786;2022-07-19T08:36:25;30.50;99.90
21197;DHT22;10756;51.014;3.786;2022-07-19T08:38:50;30.60;99.90
21197;DHT22;10756;51.014;3.786;2022-07-19T08:41:16;30.70;99.90
21197;DHT22;10756;51.014;3.786;2022-07-19T08:43:42;31.10;99.90
21197;DHT22;10756;51.014;3.786;2022-07-19T08:46:08;31.10;99.90
21197;DHT22;10756;51.014;3.786;2022-07-19T08:48:35;31.10;99.80
21197;DHT22;10756;51.014;3.786;2022-07-19T08:51:01;31.10;99.90
21197;DHT22;10756;51.014;3.786;2022-07-19T08:53:32;31.20;99.90
21197;DHT22;10756;51.014;3.786;2022-07-19T08:55:59;31.40;99.90
21197;DHT22;10756;51.014;3.786;2022-07-19T08:58:26;31.70;98.60
21197;DHT22;10756;51.014;3.786;2022-07-19T09:00:51;31.80;99.10
21197;DHT22;10756;51.014;3.786;2022-07-19T09:03:17;32.10;97.20
21197;DHT22;10756;51.014;3.786;2022-07-19T09:05:43;32.10;97.00
21197;DHT22;10756;51.014;3.786;2022-07-19T09:08:18;32.30;96.40
21197;DHT22;10756;51.014;3.786;2022-07-19T09:10:49;32.10;96.10
21197;DHT22;10756;51.014;3.786;2022-07-19T09:13:25;32.20;95.60
21197;DHT22;10756;51.014;3.786;2022-07-19T09:15:54;32.20;95.20
21197;DHT22;10756;51.014;3.786;2022-07-19T09:18:28;32.30;96.10
21197;DHT22;10756;51.014;3.786;2022-07-19T09:20:56;32.70;95.40
21197;DHT22;10756;51.014;3.786;2022-07-19T09:23:22;32.90;93.30
21197;DHT22;10756;51.014;3.786;2022-07-19T09:25:52;32.90;92.70
21197;DHT22;10756;51.014;3.786;2022-07-19T09:28:26;32.70;93.10
21197;DHT22;10756;51.014;3.786;2022-07-19T09:30:54;32.80;92.20
21197;DHT22;10756;51.014;3.786;2022-07-19T09:35:53;33.10;90.80
21197;DHT22;10756;51.014;3.786;2022-07-19T09:38:27;33.20;90.90
21197;DHT22;10756;51.014;3.786;2022-07-19T09:41:16;33.20;89.40
21197;DHT22;10756;51.014;3.786;2022-07-19T09:46:32;33.10;89.40
21197;DHT22;10756;51.014;3.786;2022-07-19T09:51:33;33.60;86.30
21197;DHT22;10756;51.014;3.786;2022-07-19T09:54:00;34.00;86.00
21197;DHT22;10756;51.014;3.786;2022-07-19T09:56:29;34.00;83.60
21197;DHT22;10756;51.014;3.786;2022-07-19T09:58:56;33.90;83.30
21197;DHT22;10756;51.014;3.786;2022-07-19T10:01:22;34.00;81.80
21197;DHT22;10756;51.014;3.786;2022-07-19T10:03:49;34.30;80.30
21197;DHT22;10756;51.014;3.786;2022-07-19T10:06:15;34.20;80.60
21197;DHT22;10756;51.014;3.786;2022-07-19T10:08:42;34.40;79.80
21197;DHT22;10756;51.014;3.786;2022-07-19T10:11:08;34.50;79.20
21197;DHT22;10756;51.014;3.786;2022-07-19T10:13:33;34.50;78.40
21197;DHT22;10756;51.014;3.786;2022-07-19T10:16:00;34.60;76.90
21197;DHT22;10756;51.014;3.786;2022-07-19T10:18:44;34.80;76.30
21197;DHT22;10756;51.014;3.786;2022-07-19T10:21:19;35.00;74.80
21197;DHT22;10756;51.014;3.786;2022-07-19T10:23:51;35.10;75.00
21197;DHT22;10756;51.014;3.786;2022-07-19T10:26:37;35.20;74.90
21197;DHT22;10756;51.014;3.786;2022-07-19T10:32:06;35.50;72.70
21197;DHT22;10756;51.014;3.786;2022-07-19T10:34:32;35.70;70.40
21197;DHT22;10756;51.014;3.786;2022-07-19T10:36:58;36.00;66.80
21197;DHT22;10756;51.014;3.786;2022-07-19T10:39:29;36.10;65.00
21197;DHT22;10756;51.014;3.786;2022-07-19T10:44:34;35.90;63.70
21197;DHT22;10756;51.014;3.786;2022-07-19T10:47:03;36.00;63.70
21197;DHT22;10756;51.014;3.786;2022-07-19T10:49:43;36.30;63.10
21197;DHT22;10756;51.014;3.786;2022-07-19T10:57:39;36.70;58.60
21197;DHT22;10756;51.014;3.786;2022-07-19T11:00:16;36.80;58.10
21197;DHT22;10756;51.014;3.786;2022-07-19T11:02:42;37.00;56.90
21197;DHT22;10756;51.014;3.786;2022-07-19T11:05:08;37.00;56.50
21197;DHT22;10756;51.014;3.786;2022-07-19T11:07:48;37.10;55.60
21197;DHT22;10756;51.014;3.786;2022-07-19T11:10:25;37.00;56.30
21197;DHT22;10756;51.014;3.786;2022-07-19T11:12:51;37.00;54.80
21197;DHT22;10756;51.014;3.786;2022-07-19T11:15:17;36.90;55.10
21197;DHT22;10756;51.014;3.786;2022-07-19T11:20:32;37.10;54.90
21197;DHT22;10756;51.014;3.786;2022-07-19T11:23:00;37.20;54.70
21197;DHT22;10756;51.014;3.786;2022-07-19T11:25:31;37.40;55.90
21197;DHT22;10756;51.014;3.786;2022-07-19T11:27:58;37.80;53.70
21197;DHT22;10756;51.014;3.786;2022-07-19T11:30:27;38.40;53.30
21197;DHT22;10756;51.014;3.786;2022-07-19T11:33:01;40.00;50.60
21197;DHT22;10756;51.014;3.786;2022-07-19T11:35:28;41.40;49.40
21197;DHT22;10756;51.014;3.786;2022-07-19T11:37:56;42.90;48.20
21197;DHT22;10756;51.014;3.786;2022-07-19T11:40:22;43.60;45.30
21197;DHT22;10756;51.014;3.786;2022-07-19T11:42:52;44.00;45.20
21197;DHT22;10756;51.014;3.786;2022-07-19T11:45:23;44.70;42.40
21197;DHT22;10756;51.014;3.786;2022-07-19T11:47:54;45.40;39.90
21197;DHT22;10756;51.014;3.786;2022-07-19T11:50:25;46.10;38.90
21197;DHT22;10756;51.014;3.786;2022-07-19T11:52:56;46.30;37.70
21197;DHT22;10756;51.014;3.786;2022-07-19T11:55:38;47.00;36.80
21197;DHT22;10756;51.014;3.786;2022-07-19T11:58:23;47.40;34.70
21197;DHT22;10756;51.014;3.786;2022-07-19T12:00:49;47.10;34.10
21197;DHT22;10756;51.014;3.786;2022-07-19T12:03:16;47.10;33.90
21197;DHT22;10756;51.014;3.786;2022-07-19T12:05:58;46.70;33.90
21197;DHT22;10756;51.014;3.786;2022-07-19T12:08:41;47.00;33.30
21197;DHT22;10756;51.014;3.786;2022-07-19T12:11:20;47.70;34.20
21197;DHT22;10756;51.014;3.786;2022-07-19T12:13:53;48.30;33.00
21197;DHT22;10756;51.014;3.786;2022-07-19T12:16:21;48.80;32.00
21197;DHT22;10756;51.014;3.786;2022-07-19T12:19:13;49.80;30.40
21197;DHT22;10756;51.014;3.786;2022-07-19T12:21:43;50.00;30.70
21197;DHT22;10756;51.014;3.786;2022-07-19T12:29:58;49.40;30.00
21197;DHT22;10756;51.014;3.786;2022-07-19T12:32:37;50.70;29.80
21197;DHT22;10756;51.014;3.786;2022-07-19T12:35:11;50.60;29.90
21197;DHT22;10756;51.014;3.786;2022-07-19T12:40:31;50.90;29.00
21197;DHT22;10756;51.014;3.786;2022-07-19T12:42:59;51.10;28.60
21197;DHT22;10756;51.014;3.786;2022-07-19T12:51:53;51.20;28.80
21197;DHT22;10756;51.014;3.786;2022-07-19T12:54:34;52.00;28.50
21197;DHT22;10756;51.014;3.786;2022-07-19T12:57:03;51.10;28.50
21197;DHT22;10756;51.014;3.786;2022-07-19T12:59:29;51.80;28.40
21197;DHT22;10756;51.014;3.786;2022-07-19T13:02:09;51.70;27.20
21197;DHT22;10756;51.014;3.786;2022-07-19T13:04:42;51.30;27.70
21197;DHT22;10756;51.014;3.786;2022-07-19T13:07:34;51.20;27.70
21197;DHT22;10756;51.014;3.786;2022-07-19T13:13:27;51.70;27.60
21197;DHT22;10756;51.014;3.786;2022-07-19T13:16:02;52.00;27.20
21197;DHT22;10756;51.014;3.786;2022-07-19T13:18:31;51.90;27.60
21197;DHT22;10756;51.014;3.786;2022-07-19T13:21:03;52.10;26.70
21197;DHT22;10756;51.014;3.786;2022-07-19T13:23:57;51.20;27.70
21197;DHT22;10756;51.014;3.786;2022-07-19T13:26:22;52.20;26.50
21197;DHT22;10756;51.014;3.786;2022-07-19T13:28:51;51.30;27.10
21197;DHT22;10756;51.014;3.786;2022-07-19T13:31:19;51.60;27.10
21197;DHT22;10756;51.014;3.786;2022-07-19T13:33:45;51.30;26.80
21197;DHT22;10756;51.014;3.786;2022-07-19T13:36:11;51.30;26.50
21197;DHT22;10756;51.014;3.786;2022-07-19T13:38:37;51.30;27.20
21197;DHT22;10756;51.014;3.786;2022-07-19T13:41:06;51.60;27.10
21197;DHT22;10756;51.014;3.786;2022-07-19T13:46:34;51.70;26.90
21197;DHT22;10756;51.014;3.786;2022-07-19T13:49:02;51.60;26.80
21197;DHT22;10756;51.014;3.786;2022-07-19T13:51:29;51.60;27.00
21197;DHT22;10756;51.014;3.786;2022-07-19T13:53:54;51.80;26.60
21197;DHT22;10756;51.014;3.786;2022-07-19T13:57:02;51.90;26.70
21197;DHT22;10756;51.014;3.786;2022-07-19T13:59:32;51.60;26.80
21197;DHT22;10756;51.014;3.786;2022-07-19T14:02:12;51.80;26.00
21197;DHT22;10756;51.014;3.786;2022-07-19T14:04:41;52.40;26.50
21197;DHT22;10756;51.014;3.786;2022-07-19T14:07:10;52.60;26.20
21197;DHT22;10756;51.014;3.786;2022-07-19T14:09:36;52.60;26.20
21197;DHT22;10756;51.014;3.786;2022-07-19T14:12:02;52.20;25.90
21197;DHT22;10756;51.014;3.786;2022-07-19T14:14:28;51.90;26.40
21197;DHT22;10756;51.014;3.786;2022-07-19T14:16:54;52.20;26.20
21197;DHT22;10756;51.014;3.786;2022-07-19T14:19:22;52.50;26.10
21197;DHT22;10756;51.014;3.786;2022-07-19T14:21:48;52.00;25.80
21197;DHT22;10756;51.014;3.786;2022-07-19T14:24:13;52.50;25.70
21197;DHT22;10756;51.014;3.786;2022-07-19T14:26:45;53.00;25.70
21197;DHT22;10756;51.014;3.786;2022-07-19T14:29:16;53.00;24.90
21197;DHT22;10756;51.014;3.786;2022-07-19T14:31:44;52.90;24.30
21197;DHT22;10756;51.014;3.786;2022-07-19T14:34:16;53.50;24.40
21197;DHT22;10756;51.014;3.786;2022-07-19T14:36:47;53.30;24.40
21197;DHT22;10756;51.014;3.786;2022-07-19T14:39:13;53.40;24.10
21197;DHT22;10756;51.014;3.786;2022-07-19T14:41:48;53.50;23.40
21197;DHT22;10756;51.014;3.786;2022-07-19T14:44:17;52.40;23.50
21197;DHT22;10756;51.014;3.786;2022-07-19T14:46:45;51.90;23.80
21197;DHT22;10756;51.014;3.786;2022-07-19T14:49:39;51.90;23.50
21197;DHT22;10756;51.014;3.786;2022-07-19T14:52:11;52.20;24.50
21197;DHT22;10756;51.014;3.786;2022-07-19T14:54:40;52.90;24.00
21197;DHT22;10756;51.014;3.786;2022-07-19T14:57:32;52.60;24.10
21197;DHT22;10756;51.014;3.786;2022-07-19T15:03:24;53.30;24.20
21197;DHT22;10756;51.014;3.786;2022-07-19T15:09:49;53.20;23.90
21197;DHT22;10756;51.014;3.786;2022-07-19T15:12:46;53.60;23.70
21197;DHT22;10756;51.014;3.786;2022-07-19T15:15:15;53.30;23.30
21197;DHT22;10756;51.014;3.786;2022-07-19T15:17:57;52.50;23.70
21197;DHT22;10756;51.014;3.786;2022-07-19T15:20:33;52.90;23.50
21197;DHT22;10756;51.014;3.786;2022-07-19T15:22:59;53.20;23.00
21197;DHT22;10756;51.014;3.786;2022-07-19T15:25:45;52.90;23.40
21197;DHT22;10756;51.014;3.786;2022-07-19T15:28:10;53.50;22.90
21197;DHT22;10756;51.014;3.786;2022-07-19T15:30:58;52.90;23.30
21197;DHT22;10756;51.014;3.786;2022-07-19T15:33:45;52.50;23.40
21197;DHT22;10756;51.014;3.786;2022-07-19T15:36:10;52.80;23.70
21197;DHT22;10756;51.014;3.786;2022-07-19T15:38:36;53.00;23.50
21197;DHT22;10756;51.014;3.786;2022-07-19T15:41:01;53.40;22.60
21197;DHT22;10756;51.014;3.786;2022-07-19T15:43:27;53.30;22.40
21197;DHT22;10756;51.014;3.786;2022-07-19T15:46:04;53.60;22.60
21197;DHT22;10756;51.014;3.786;2022-07-19T15:48:30;53.70;22.60
21197;DHT22;10756;51.014;3.786;2022-07-19T15:51:22;53.40;22.80
21197;DHT22;10756;51.014;3.786;2022-07-19T15:53:47;52.60;23.20
21197;DHT22;10756;51.014;3.786;2022-07-19T15:56:19;53.10;22.40
21197;DHT22;10756;51.014;3.786;2022-07-19T15:58:45;53.40;23.10
21197;DHT22;10756;51.014;3.786;2022-07-19T16:01:11;52.40;22.80
21197;DHT22;10756;51.014;3.786;2022-07-19T16:04:03;52.50;23.00
21197;DHT22;10756;51.014;3.786;2022-07-19T16:09:37;52.40;22.80
21197;DHT22;10756;51.014;3.786;2022-07-19T16:12:04;52.50;22.60
21197;DHT22;10756;51.014;3.786;2022-07-19T16:14:30;52.50;22.60
21197;DHT22;10756;51.014;3.786;2022-07-19T16:17:05;52.40;22.50
21197;DHT22;10756;51.014;3.786;2022-07-19T16:19:35;51.90;22.80
21197;DHT22;10756;51.014;3.786;2022-07-19T16:22:01;52.20;22.80
21197;DHT22;10756;51.014;3.786;2022-07-19T16:24:29;51.20;23.10
21197;DHT22;10756;51.014;3.786;2022-07-19T16:26:58;50.80;23.50
21197;DHT22;10756;51.014;3.786;2022-07-19T16:29:27;51.00;23.20
21197;DHT22;10756;51.014;3.786;2022-07-19T16:31:52;51.30;23.10
21197;DHT22;10756;51.014;3.786;2022-07-19T16:34:18;51.50;23.40